Time;durP1;ratioP1;P1;durP2;ratioP2;P2;SDS_P1;SDS_P2;PMS_P1;PMS_P2;Temp;Humidity;BMP_temperature;BMP_pressure;BME280_temperature;BME280_humidity;BME280_pressure;Samples;Min_cycle;Max_cycle;Signal;HPM_P1;HPM_P2
2022/06/30 00:00:48;;;;;;;4.28;3.13;;;17.70;99.90;;;;;;5047966;28;20053;-44
2022/06/30 00:03:13;;;;;;;2.65;2.40;;;17.70;99.90;;;;;;5047691;28;20483;-44
2022/06/30 00:05:39;;;;;;;2.80;2.33;;;17.60;99.90;;;;;;5047899;28;20040;-44
2022/06/30 00:08:05;;;;;;;3.05;2.20;;;17.40;99.20;;;;;;5047839;28;20136;-45
2022/06/30 00:10:31;;;;;;;6.72;2.75;;;17.50;99.60;;;;;;5046810;28;20095;-44
2022/06/30 00:12:56;;;;;;;3.53;2.40;;;17.50;99.70;;;;;;5046089;28;20080;-44
2022/06/30 00:15:22;;;;;;;3.42;3.03;;;17.40;99.90;;;;;;5047924;28;20513;-45
2022/06/30 00:17:48;;;;;;;4.95;2.92;;;17.40;99.90;;;;;;5047565;28;20048;-44
2022/06/30 00:20:13;;;;;;;3.95;3.10;;;17.40;99.90;;;;;;5047541;28;20049;-44
2022/06/30 00:22:39;;;;;;;4.43;2.97;;;17.30;99.90;;;;;;5047650;28;20080;-44
2022/06/30 00:25:05;;;;;;;5.50;3.28;;;17.10;99.90;;;;;;5048119;28;20045;-44
2022/06/30 00:27:31;;;;;;;3.50;2.75;;;17.10;99.90;;;;;;5047697;28;20041;-44
2022/06/30 00:29:57;;;;;;;6.13;3.28;;;17.00;99.90;;;;;;5047559;28;20071;-44
2022/06/30 00:32:22;;;;;;;5.72;3.55;;;16.90;99.90;;;;;;5046326;28;20481;-44
2022/06/30 00:34:48;;;;;;;3.92;3.35;;;16.70;99.90;;;;;;5047629;28;20055;-44
2022/06/30 00:37:14;;;;;;;4.32;2.70;;;16.90;99.90;;;;;;5047650;28;20394;-43
2022/06/30 00:39:39;;;;;;;4.63;3.13;;;17.20;99.90;;;;;;5047586;28;20558;-45
2022/06/30 00:42:06;;;;;;;4.32;2.92;;;16.50;99.90;;;;;;5047436;28;20041;-44
2022/06/30 00:44:32;;;;;;;4.63;3.15;;;16.80;99.90;;;;;;5047266;28;20486;-44
2022/06/30 00:46:58;;;;;;;3.95;3.17;;;17.10;99.90;;;;;;5045775;28;20495;-44
2022/06/30 00:49:24;;;;;;;3.50;3.03;;;16.80;99.90;;;;;;5047546;28;20044;-44
2022/06/30 00:51:50;;;;;;;4.03;3.20;;;16.80;99.90;;;;;;5047433;28;20044;-44
2022/06/30 00:54:16;;;;;;;4.28;3.33;;;16.90;99.90;;;;;;5047626;28;20040;-44
2022/06/30 00:56:46;;;;;;;4.38;3.42;;;17.20;99.90;;;;;;5047923;28;20777;-51
2022/06/30 00:59:15;;;;;;;3.45;3.15;;;16.80;99.90;;;;;;5048044;28;20037;-44
2022/06/30 01:01:43;;;;;;;3.50;3.05;;;16.90;99.90;;;;;;5048041;28;20047;-46
2022/06/30 01:04:08;;;;;;;5.22;3.28;;;16.80;99.90;;;;;;5046376;28;20084;-44
2022/06/30 01:06:36;;;;;;;4.40;2.88;;;17.30;99.90;;;;;;5047798;28;20047;-44
2022/06/30 01:09:10;;;;;;;4.57;3.13;;;;;;;;;;5050472;28;20123;-43
2022/06/30 01:14:33;;;;;;;;;;;;;;;;;;5051493;28;20041;-44
2022/06/30 01:17:00;;;;;;;6.30;3.10;;;;;;;;;;5050473;28;19924;-44
2022/06/30 01:19:27;;;;;;;4.82;2.95;;;;;;;;;;5050727;28;20128;-44
2022/06/30 01:22:06;;;;;;;5.57;3.13;;;;;;;;;;5050699;28;20040;-44
2022/06/30 01:24:35;;;;;;;4.50;3.08;;;;;;;;;;5050746;28;20079;-44
2022/06/30 01:27:04;;;;;;;5.75;3.03;;;;;;;;;;5050484;28;20509;-44
2022/06/30 01:29:33;;;;;;;3.15;2.85;;;;;;;;;;5051157;28;20599;-44
2022/06/30 01:32:02;;;;;;;4.03;2.50;;;;;;;;;;5050944;28;20055;-44
2022/06/30 01:34:34;;;;;;;6.20;2.72;;;;;;;;;;5050495;28;20041;-44
2022/06/30 01:37:05;;;;;;;3.80;2.67;;;;;;;;;;5050299;28;20049;-44
2022/06/30 01:39:39;;;;;;;3.78;2.85;;;;;;;;;;5050213;28;20041;-45
2022/06/30 01:42:10;;;;;;;5.38;2.75;;;;;;;;;;5050471;28;20052;-46
2022/06/30 01:44:49;;;;;;;4.32;3.00;;;;;;;;;;5050379;28;20044;-44
2022/06/30 01:47:26;;;;;;;4.85;2.83;;;;;;;;;;5050300;28;20077;-45
2022/06/30 01:50:01;;;;;;;5.20;3.30;;;;;;;;;;5048822;28;20155;-44
2022/06/30 01:52:43;;;;;;;4.03;2.50;;;;;;;;;;5050040;28;20081;-44
2022/06/30 01:55:34;;;;;;;5.25;2.95;;;;;;;;;;5031882;28;20044;-45
2022/06/30 01:58:05;;;;;;;3.80;3.05;;;17.30;99.90;;;;;;5031500;28;20045;-43
2022/06/30 02:00:32;;;;;;;7.05;3.15;;;17.20;99.90;;;;;;5050128;28;20041;-44
2022/06/30 02:02:58;;;;;;;3.75;3.45;;;17.30;99.90;;;;;;5049759;28;20106;-44
2022/06/30 02:05:25;;;;;;;4.70;3.22;;;17.30;99.90;;;;;;5050349;28;20036;-44
2022/06/30 02:07:51;;;;;;;3.97;3.00;;;17.50;99.90;;;;;;5049425;28;20061;-44
2022/06/30 02:10:20;;;;;;;4.85;3.00;;;17.20;99.90;;;;;;5049467;28;20102;-44
2022/06/30 02:12:46;;;;;;;3.97;2.67;;;17.20;99.90;;;;;;5050167;28;20084;-44
2022/06/30 02:15:24;;;;;;;4.60;3.05;;;17.00;99.90;;;;;;5049627;28;20482;-44
2022/06/30 02:17:54;;;;;;;4.18;3.13;;;17.00;99.90;;;;;;5049934;28;20079;-44
2022/06/30 02:20:21;;;;;;;4.07;2.75;;;17.00;99.90;;;;;;5049136;28;20052;-43
2022/06/30 02:22:49;;;;;;;3.80;3.30;;;17.00;99.90;;;;;;5049865;28;20037;-44
2022/06/30 02:25:16;;;;;;;3.75;3.25;;;16.80;99.90;;;;;;5049331;28;20063;-44
2022/06/30 02:27:41;;;;;;;4.07;3.05;;;16.80;99.90;;;;;;5049870;28;20047;-44
2022/06/30 02:30:08;;;;;;;5.50;3.65;;;16.60;99.90;;;;;;5049037;28;20131;-43
2022/06/30 02:32:34;;;;;;;3.65;3.35;;;16.60;99.90;;;;;;5048107;28;20080;-45
2022/06/30 02:35:00;;;;;;;4.82;3.15;;;16.70;99.90;;;;;;5049187;28;20047;-43
2022/06/30 02:37:26;;;;;;;6.38;3.80;;;16.40;99.90;;;;;;5049488;28;20045;-45
2022/06/30 02:39:52;;;;;;;5.25;3.45;;;;;;;;;;5049267;28;20052;-43
2022/06/30 02:42:22;;;;;;;7.35;3.78;;;;;;;;;;5047761;28;20139;-47
2022/06/30 02:44:48;;;;;;;5.22;3.20;;;;;;;;;;5047908;28;20190;-44
2022/06/30 02:47:14;;;;;;;5.35;3.97;;;;;;;;;;5049113;28;20098;-43
2022/06/30 02:49:40;;;;;;;3.92;3.38;;;16.20;99.90;;;;;;5049092;28;20118;-44
2022/06/30 02:52:07;;;;;;;4.72;3.90;;;;;;;;;;5047220;28;20475;-44
2022/06/30 02:54:33;;;;;;;6.07;3.88;;;;;;;;;;5048923;28;20079;-47
2022/06/30 02:56:59;;;;;;;3.60;3.05;;;;;;;;;;5048637;28;20127;-44
2022/06/30 02:59:25;;;;;;;3.83;3.45;;;;;;;;;;5048814;28;20135;-44
2022/06/30 03:01:51;;;;;;;6.72;3.22;;;16.10;99.90;;;;;;5048783;28;20048;-43
2022/06/30 03:04:17;;;;;;;6.38;3.90;;;16.00;99.90;;;;;;5048433;28;20049;-43
2022/06/30 03:06:42;;;;;;;3.88;3.33;;;15.90;99.90;;;;;;5048636;28;20071;-42
2022/06/30 03:09:08;;;;;;;5.60;3.13;;;15.80;99.90;;;;;;5048089;28;20099;-43
2022/06/30 03:11:34;;;;;;;4.20;3.72;;;15.70;99.90;;;;;;5047969;28;20067;-43
2022/06/30 03:14:00;;;;;;;5.55;3.78;;;15.70;99.90;;;;;;5048062;28;20072;-44
2022/06/30 03:16:25;;;;;;;5.07;3.58;;;15.70;99.90;;;;;;5048589;28;20037;-43
2022/06/30 03:18:52;;;;;;;6.10;3.50;;;15.70;99.90;;;;;;5048830;28;20586;-44
2022/06/30 03:21:20;;;;;;;4.07;3.40;;;15.70;99.90;;;;;;5048338;28;20483;-44
2022/06/30 03:23:46;;;;;;;4.82;3.90;;;16.00;99.90;;;;;;5048674;28;20505;-43
2022/06/30 03:26:12;;;;;;;5.10;4.13;;;16.20;99.90;;;;;;5048858;28;20431;-43
2022/06/30 03:28:38;;;;;;;4.43;3.47;;;15.40;99.90;;;;;;5048974;28;20120;-44
2022/06/30 03:31:05;;;;;;;4.80;4.40;;;15.60;99.90;;;;;;5048149;28;20091;-44
2022/06/30 03:33:30;;;;;;;4.45;3.53;;;15.60;99.90;;;;;;5048321;28;20507;-43
2022/06/30 03:35:57;;;;;;;4.68;3.63;;;15.60;99.90;;;;;;5048499;28;20075;-43
2022/06/30 03:38:22;;;;;;;4.57;3.80;;;16.00;99.90;;;;;;5048664;28;20068;-45
2022/06/30 03:40:48;;;;;;;7.38;4.13;;;15.50;99.90;;;;;;5048424;28;20079;-44
2022/06/30 03:43:16;;;;;;;5.70;4.38;;;15.60;99.90;;;;;;5047902;28;20455;-45
2022/06/30 03:45:42;;;;;;;4.97;4.10;;;16.00;99.90;;;;;;5047983;28;20478;-44
2022/06/30 03:48:07;;;;;;;4.65;3.78;;;15.60;99.90;;;;;;5048267;28;20063;-44
2022/06/30 03:50:34;;;;;;;5.05;3.90;;;15.60;99.90;;;;;;5048298;28;20045;-43
2022/06/30 03:53:00;;;;;;;5.22;4.32;;;15.50;99.90;;;;;;5048363;28;20044;-44
2022/06/30 03:55:27;;;;;;;5.07;4.07;;;15.50;99.90;;;;;;5048173;28;20471;-44
2022/06/30 03:57:52;;;;;;;6.28;4.10;;;15.50;99.90;;;;;;5048737;28;20402;-43
2022/06/30 04:00:19;;;;;;;5.97;4.07;;;15.50;99.90;;;;;;5048656;28;20044;-44
2022/06/30 04:02:45;;;;;;;5.15;4.15;;;15.60;99.90;;;;;;5047641;28;20111;-44
2022/06/30 04:05:10;;;;;;;6.30;3.72;;;15.60;99.90;;;;;;5048553;28;20049;-43
2022/06/30 04:07:44;;;;;;;5.57;4.38;;;15.70;99.90;;;;;;5048414;28;20489;-44
2022/06/30 04:10:11;;;;;;;4.85;4.35;;;15.90;99.90;;;;;;5047578;28;20045;-44
2022/06/30 04:12:38;;;;;;;4.85;3.97;;;15.90;99.90;;;;;;5048249;28;20055;-45
2022/06/30 04:15:04;;;;;;;5.50;3.95;;;16.30;99.90;;;;;;5047742;28;20048;-44
2022/06/30 04:17:33;;;;;;;5.70;3.92;;;16.00;99.90;;;;;;5047779;28;20040;-44
2022/06/30 04:20:00;;;;;;;5.55;3.90;;;16.10;99.90;;;;;;5047680;28;20048;-44
2022/06/30 04:22:26;;;;;;;4.82;4.40;;;16.60;99.90;;;;;;5047687;28;20049;-44
2022/06/30 04:24:52;;;;;;;5.05;3.80;;;16.90;99.90;;;;;;5047947;28;20094;-46
2022/06/30 04:27:17;;;;;;;6.13;4.10;;;17.40;99.90;;;;;;5047845;28;20045;-43
2022/06/30 04:29:43;;;;;;;5.07;3.83;;;17.80;99.90;;;;;;5047830;28;20068;-44
2022/06/30 04:34:53;;;;;;;6.03;4.00;;;17.70;99.90;;;;;;5047644;28;20052;-44
2022/06/30 04:37:19;;;;;;;7.63;4.32;;;17.70;99.90;;;;;;5047151;28;20075;-43
2022/06/30 04:39:45;;;;;;;5.50;4.13;;;17.50;99.90;;;;;;5047287;28;20048;-45
2022/06/30 04:42:10;;;;;;;5.40;4.30;;;17.50;99.90;;;;;;5048194;28;20046;-44
2022/06/30 04:44:36;;;;;;;5.10;4.20;;;17.90;99.90;;;;;;5051328;28;20047;-44
2022/06/30 04:47:02;;;;;;;4.40;4.00;;;17.70;99.90;;;;;;5051158;28;20084;-45
2022/06/30 04:49:27;;;;;;;5.00;3.92;;;17.70;99.90;;;;;;5051097;28;20037;-45
2022/06/30 04:51:53;;;;;;;4.93;3.58;;;17.70;99.90;;;;;;5051091;28;20520;-43
2022/06/30 04:54:19;;;;;;;4.93;3.90;;;17.80;99.90;;;;;;5050932;28;20326;-44
2022/06/30 04:56:44;;;;;;;6.35;4.97;;;17.90;99.90;;;;;;5051062;28;20072;-45
2022/06/30 04:59:10;;;;;;;4.30;3.90;;;17.90;99.90;;;;;;5050746;28;20064;-45
2022/06/30 05:01:35;;;;;;;6.70;3.78;;;18.10;99.90;;;;;;5050755;28;20497;-44
2022/06/30 05:04:02;;;;;;;5.80;4.35;;;18.20;99.90;;;;;;5050671;28;20506;-44
2022/06/30 05:06:28;;;;;;;4.15;3.67;;;18.70;99.90;;;;;;5050675;28;20041;-43
2022/06/30 05:08:53;;;;;;;4.68;3.63;;;19.00;99.90;;;;;;5050465;28;20053;-43
2022/06/30 05:11:19;;;;;;;6.28;4.35;;;19.00;99.90;;;;;;5049780;28;20048;-45
2022/06/30 05:13:45;;;;;;;7.78;4.03;;;19.00;99.90;;;;;;5050713;28;20041;-46
2022/06/30 05:16:11;;;;;;;5.78;4.03;;;19.00;99.90;;;;;;5050372;28;20102;-44
2022/06/30 05:18:36;;;;;;;4.85;4.05;;;19.10;99.90;;;;;;5050929;28;20388;-44
2022/06/30 05:21:02;;;;;;;5.05;3.65;;;19.10;99.90;;;;;;5050811;28;20576;-44
2022/06/30 05:23:28;;;;;;;6.30;3.67;;;19.20;99.90;;;;;;5050299;28;20051;-45
2022/06/30 05:28:39;;;;;;;5.25;4.72;;;19.10;99.90;;;;;;5050616;28;20136;-44
2022/06/30 05:31:04;;;;;;;7.63;4.57;;;19.00;99.90;;;;;;5051087;28;20088;-44
2022/06/30 05:33:30;;;;;;;7.97;4.75;;;18.90;99.90;;;;;;5050496;28;20077;-44
2022/06/30 05:35:58;;;;;;;7.60;3.80;;;19.00;99.90;;;;;;5050594;28;20525;-44
2022/06/30 05:38:24;;;;;;;7.50;4.18;;;19.20;99.90;;;;;;5050572;28;20372;-44
2022/06/30 05:40:49;;;;;;;5.43;3.53;;;19.30;99.90;;;;;;5050505;28;20037;-44
2022/06/30 05:43:16;;;;;;;4.53;3.92;;;19.50;99.90;;;;;;5048712;28;20132;-44
2022/06/30 05:45:42;;;;;;;8.07;3.85;;;19.60;99.90;;;;;;5050394;28;20120;-43
2022/06/30 05:48:08;;;;;;;5.32;3.75;;;19.70;99.90;;;;;;5050370;28;20033;-44
2022/06/30 05:50:34;;;;;;;3.95;3.55;;;19.90;99.90;;;;;;5049939;28;20044;-44
2022/06/30 05:53:00;;;;;;;4.47;3.60;;;20.20;99.90;;;;;;5049610;28;20128;-44
2022/06/30 05:55:25;;;;;;;4.97;3.22;;;21.70;98.70;;;;;;5049625;28;20044;-43
2022/06/30 05:57:56;;;;;;;4.53;3.72;;;22.60;95.80;;;;;;5049944;28;20052;-44
2022/06/30 06:00:25;;;;;;;4.90;3.60;;;23.90;90.80;;;;;;5050087;28;20440;-45
2022/06/30 06:02:51;;;;;;;5.45;3.97;;;24.00;88.90;;;;;;5049367;28;20049;-44
2022/06/30 06:05:17;;;;;;;7.78;3.63;;;24.10;88.10;;;;;;5049694;28;20055;-45
2022/06/30 06:07:43;;;;;;;4.15;3.72;;;24.30;86.60;;;;;;5049504;28;20057;-48
2022/06/30 06:10:10;;;;;;;5.25;3.42;;;24.90;84.40;;;;;;5049735;28;20395;-44
2022/06/30 06:12:37;;;;;;;4.95;3.80;;;24.60;84.60;;;;;;5049380;28;20052;-44
2022/06/30 06:15:04;;;;;;;6.53;3.55;;;24.40;86.30;;;;;;5049821;28;20390;-48
2022/06/30 06:17:30;;;;;;;5.28;3.58;;;24.30;87.20;;;;;;5049454;28;20045;-44
2022/06/30 06:19:56;;;;;;;4.47;3.33;;;25.20;85.50;;;;;;5049674;28;20564;-45
2022/06/30 06:22:22;;;;;;;4.13;3.10;;;26.80;80.80;;;;;;5048673;28;20041;-46
2022/06/30 06:24:48;;;;;;;5.63;2.97;;;27.90;76.60;;;;;;5049891;28;20047;-45
2022/06/30 06:27:14;;;;;;;5.80;2.78;;;28.50;78.40;;;;;;5049434;28;20087;-44
2022/06/30 06:29:39;;;;;;;5.00;2.90;;;28.60;71.90;;;;;;5049283;28;20099;-49
2022/06/30 06:32:05;;;;;;;5.05;2.65;;;27.60;75.20;;;;;;5048393;28;20045;-45
2022/06/30 06:34:31;;;;;;;4.28;2.88;;;27.40;75.90;;;;;;5048212;28;20033;-45
2022/06/30 06:36:57;;;;;;;3.00;2.42;;;28.90;73.10;;;;;;5049074;28;20371;-45
2022/06/30 06:39:22;;;;;;;3.05;2.20;;;30.30;71.10;;;;;;5049055;28;20111;-45
2022/06/30 06:41:48;;;;;;;4.65;2.63;;;31.30;66.90;;;;;;5049086;28;20053;-45
2022/06/30 06:44:13;;;;;;;5.28;2.45;;;32.00;64.10;;;;;;5048891;28;20045;-46
2022/06/30 06:46:39;;;;;;;3.75;2.25;;;32.50;62.40;;;;;;5048344;28;20033;-46
2022/06/30 06:49:07;;;;;;;3.88;2.58;;;33.10;61.20;;;;;;5048392;28;20565;-46
2022/06/30 06:51:33;;;;;;;4.40;2.55;;;33.80;59.30;;;;;;5048215;28;20439;-45
2022/06/30 06:53:59;;;;;;;4.60;2.13;;;34.20;58.10;;;;;;5048819;28;20128;-45
2022/06/30 06:56:25;;;;;;;4.10;2.20;;;34.90;57.70;;;;;;5048900;28;20128;-46
2022/06/30 06:58:51;;;;;;;5.93;2.25;;;35.50;55.90;;;;;;5049124;28;20048;-46
2022/06/30 07:01:17;;;;;;;3.63;2.10;;;35.80;54.60;;;;;;5048213;28;20044;-46
2022/06/30 07:03:42;;;;;;;3.53;2.28;;;35.90;53.60;;;;;;5048147;28;20056;-46
2022/06/30 07:06:09;;;;;;;4.38;2.30;;;36.10;53.50;;;;;;5047592;28;20119;-45
2022/06/30 07:08:35;;;;;;;4.68;2.40;;;36.30;53.60;;;;;;5047918;28;20059;-45
2022/06/30 07:11:03;;;;;;;2.45;2.10;;;36.80;52.20;;;;;;5048289;28;20520;-46
2022/06/30 07:13:29;;;;;;;3.95;1.95;;;37.40;51.80;;;;;;5047748;28;20549;-46
2022/06/30 07:15:55;;;;;;;3.25;2.10;;;37.90;50.60;;;;;;5048270;28;20119;-45
2022/06/30 07:18:21;;;;;;;5.28;2.20;;;37.90;50.00;;;;;;5047976;28;20518;-46
2022/06/30 07:20:48;;;;;;;3.05;1.90;;;37.80;50.10;;;;;;5047978;28;20511;-46
2022/06/30 07:23:14;;;;;;;5.43;2.50;;;37.90;49.90;;;;;;5048139;28;20560;-46
2022/06/30 07:25:40;;;;;;;5.20;2.10;;;38.30;49.70;;;;;;5047112;28;20308;-46
2022/06/30 07:28:06;;;;;;;3.70;1.80;;;38.40;49.00;;;;;;5048343;28;20033;-45
2022/06/30 07:30:31;;;;;;;4.40;1.80;;;37.40;50.40;;;;;;5048422;28;20072;-45
2022/06/30 07:32:57;;;;;;;3.45;2.10;;;36.80;50.40;;;;;;5047839;28;20044;-46
2022/06/30 07:35:23;;;;;;;6.20;2.45;;;36.80;50.60;;;;;;5047240;28;20068;-46
2022/06/30 07:37:49;;;;;;;3.58;2.80;;;37.00;50.70;;;;;;5047362;28;20110;-45
2022/06/30 07:40:14;;;;;;;3.55;2.60;;;37.10;49.50;;;;;;5047779;28;20616;-46
2022/06/30 07:42:41;;;;;;;6.28;2.63;;;37.70;49.00;;;;;;5047510;28;20036;-49
2022/06/30 07:45:07;;;;;;;2.72;2.20;;;38.30;48.20;;;;;;5048319;28;20043;-47
2022/06/30 07:47:33;;;;;;;2.53;2.33;;;38.70;47.80;;;;;;5047226;28;20477;-47
2022/06/30 07:49:59;;;;;;;3.60;2.42;;;39.20;48.20;;;;;;5047501;28;20756;-46
2022/06/30 07:52:25;;;;;;;2.50;2.20;;;39.60;47.90;;;;;;5047273;28;20107;-46
2022/06/30 07:54:51;;;;;;;3.13;2.50;;;39.80;47.40;;;;;;5047981;28;20044;-45
2022/06/30 07:57:18;;;;;;;5.32;2.15;;;40.00;46.40;;;;;;5046786;28;20448;-47
2022/06/30 07:59:44;;;;;;;3.97;2.17;;;40.50;46.20;;;;;;5047492;28;20174;-46
2022/06/30 08:02:10;;;;;;;5.53;2.05;;;40.70;46.20;;;;;;5047633;28;20136;-48
2022/06/30 08:04:36;;;;;;;3.35;2.65;;;41.20;46.00;;;;;;5047742;28;20040;-46
2022/06/30 08:07:03;;;;;;;3.08;2.47;;;41.60;44.90;;;;;;5047631;28;20052;-45
2022/06/30 08:09:29;;;;;;;3.42;2.45;;;41.80;43.90;;;;;;5046850;28;20053;-46
2022/06/30 08:11:55;;;;;;;2.85;2.08;;;42.30;44.40;;;;;;5047327;28;20088;-47
2022/06/30 08:14:24;;;;;;;2.97;2.30;;;42.60;44.60;;;;;;5047475;28;20072;-46
2022/06/30 08:16:49;;;;;;;4.35;2.97;;;42.70;44.80;;;;;;5047418;28;20140;-47
2022/06/30 08:19:18;;;;;;;4.75;3.20;;;42.80;43.40;;;;;;5051452;28;20508;-46
2022/06/30 08:21:44;;;;;;;3.05;2.35;;;42.80;42.50;;;;;;5051313;28;20068;-43
2022/06/30 08:24:10;;;;;;;3.75;2.72;;;42.90;43.10;;;;;;5050609;28;20076;-43
2022/06/30 08:26:36;;;;;;;3.58;2.42;;;42.70;43.50;;;;;;5051886;28;20083;-43
2022/06/30 08:29:02;;;;;;;3.28;2.97;;;42.80;43.60;;;;;;5051018;28;20049;-44
2022/06/30 08:31:28;;;;;;;4.30;2.60;;;43.10;43.00;;;;;;5051417;28;20041;-45
2022/06/30 08:33:54;;;;;;;5.18;2.90;;;43.20;43.20;;;;;;5051869;28;20506;-44
2022/06/30 08:36:21;;;;;;;3.90;2.60;;;43.50;42.90;;;;;;5050324;28;20402;-45
2022/06/30 08:38:46;;;;;;;3.65;2.97;;;43.50;42.80;;;;;;5051259;28;20119;-44
2022/06/30 08:44:00;;;;;;;3.70;2.75;;;43.30;42.40;;;;;;5052208;28;20449;-48
2022/06/30 08:46:27;;;;;;;5.63;2.42;;;42.70;42.60;;;;;;5050820;28;20453;-43
2022/06/30 08:48:54;;;;;;;3.40;3.08;;;42.90;41.70;;;;;;5051629;28;20440;-45
2022/06/30 08:51:21;;;;;;;5.10;2.72;;;43.20;42.10;;;;;;5051685;28;20044;-44
2022/06/30 08:53:56;;;;;;;6.93;3.15;;;43.70;42.70;;;;;;5051404;28;20398;-46
2022/06/30 08:56:23;;;;;;;6.45;3.10;;;44.10;42.30;;;;;;5051701;28;20044;-44
2022/06/30 08:58:51;;;;;;;4.93;3.50;;;44.30;41.70;;;;;;5051485;28;20051;-47
2022/06/30 09:01:18;;;;;;;3.83;3.22;;;44.40;41.40;;;;;;5051486;28;20037;-43
2022/06/30 09:03:44;;;;;;;3.65;3.08;;;44.30;41.20;;;;;;5051008;28;20445;-44
2022/06/30 09:06:10;;;;;;;4.00;2.85;;;43.80;41.40;;;;;;5051587;28;20037;-44
2022/06/30 09:08:35;;;;;;;7.97;3.28;;;43.60;41.80;;;;;;5050930;28;20115;-48
2022/06/30 09:11:01;;;;;;;5.03;3.35;;;43.80;41.70;;;;;;5051223;28;20052;-47
2022/06/30 09:13:43;;;;;;;4.82;4.00;;;44.10;41.80;;;;;;5051191;28;20041;-44
2022/06/30 09:16:09;;;;;;;6.47;4.28;;;44.20;41.80;;;;;;5051494;28;20505;-44
2022/06/30 09:18:34;;;;;;;5.00;4.15;;;44.10;41.40;;;;;;5050946;28;20041;-46
2022/06/30 09:21:08;;;;;;;3.33;3.00;;;44.20;40.80;;;;;;5051247;28;20380;-44
2022/06/30 09:23:36;;;;;;;4.03;3.25;;;44.60;42.20;;;;;;5050670;28;20485;-47
2022/06/30 09:26:02;;;;;;;3.60;3.30;;;45.30;41.70;;;;;;5050802;28;20495;-47
2022/06/30 09:28:54;;;;;;;4.80;4.00;;;45.60;40.90;;;;;;5050359;28;20045;-48
2022/06/30 09:31:32;;;;;;;4.57;3.25;;;46.00;40.60;;;;;;5050857;28;20479;-46
2022/06/30 09:34:12;;;;;;;7.40;3.55;;;46.50;40.00;;;;;;5050938;28;20041;-44
2022/06/30 09:36:39;;;;;;;4.40;3.60;;;46.40;39.70;;;;;;5050404;28;20044;-45
2022/06/30 09:39:07;;;;;;;4.75;3.22;;;46.50;39.80;;;;;;5050798;28;20671;-47
2022/06/30 09:41:35;;;;;;;3.78;3.38;;;46.70;39.50;;;;;;5050747;28;20051;-48
2022/06/30 09:44:17;;;;;;;4.32;3.20;;;46.70;39.70;;;;;;5050500;28;20041;-47
2022/06/30 09:47:02;;;;;;;4.13;3.72;;;46.20;38.60;;;;;;5050828;28;20037;-46
2022/06/30 09:49:33;;;;;;;3.22;2.92;;;46.10;39.90;;;;;;5050417;28;20045;-45
2022/06/30 09:52:04;;;;;;;3.20;2.90;;;45.40;40.00;;;;;;5050458;28;20076;-44
2022/06/30 09:54:34;;;;;;;8.68;3.97;;;45.20;40.80;;;;;;5050130;28;20044;-45
2022/06/30 09:57:06;;;;;;;3.90;3.50;;;45.40;39.90;;;;;;5049986;28;20087;-47
2022/06/30 09:59:33;;;;;;;5.00;3.42;;;45.80;39.50;;;;;;5050615;28;20107;-44
2022/06/30 10:01:59;;;;;;;3.58;3.03;;;45.70;39.80;;;;;;5050293;28;20045;-49
2022/06/30 10:04:25;;;;;;;4.18;2.90;;;45.90;39.50;;;;;;5050343;28;20200;-46
2022/06/30 10:06:52;;;;;;;4.75;4.20;;;46.10;40.20;;;;;;5050251;28;20076;-45
2022/06/30 10:09:18;;;;;;;2.78;2.50;;;46.10;39.10;;;;;;5049166;28;20080;-48
2022/06/30 10:11:46;;;;;;;3.55;3.08;;;46.10;40.00;;;;;;5049598;28;20056;-46
2022/06/30 10:14:14;;;;;;;3.53;2.63;;;46.00;40.10;;;;;;5049912;28;20692;-45
2022/06/30 10:16:41;;;;;;;4.68;4.28;;;46.30;41.10;;;;;;5049776;28;20060;-48
2022/06/30 10:19:09;;;;;;;6.38;3.28;;;46.30;39.30;;;;;;5049349;28;20045;-44
2022/06/30 10:21:36;;;;;;;4.30;2.40;;;46.20;38.50;;;;;;5049642;28;20131;-45
2022/06/30 10:24:04;;;;;;;3.40;2.20;;;46.30;39.70;;;;;;5049279;28;20037;-47
2022/06/30 10:29:15;;;;;;;3.00;2.70;;;46.30;39.40;;;;;;5049565;28;20075;-44
2022/06/30 10:32:04;;;;;;;2.58;2.35;;;46.30;38.80;;;;;;5049402;28;20041;-47
2022/06/30 10:34:36;;;;;;;2.97;2.15;;;46.40;40.20;;;;;;5047804;28;20325;-46
2022/06/30 10:37:28;;;;;;;4.75;2.70;;;46.30;39.00;;;;;;5049340;28;20746;-47
2022/06/30 10:40:05;;;;;;;4.35;3.03;;;46.60;39.70;;;;;;5047812;28;20052;-44
2022/06/30 10:42:49;;;;;;;4.18;3.10;;;46.80;38.20;;;;;;5049386;28;20099;-44
2022/06/30 10:45:26;;;;;;;4.15;3.22;;;46.60;37.60;;;;;;5049471;28;20049;-45
2022/06/30 10:48:01;;;;;;;4.60;3.83;;;46.10;37.70;;;;;;5049261;28;20072;-45
2022/06/30 10:50:41;;;;;;;3.53;2.95;;;45.70;37.90;;;;;;5049193;28;20080;-43
2022/06/30 10:53:08;;;;;;;;;;;45.60;38.90;;;;;;5049715;28;20045;-44
2022/06/30 10:55:48;;;;;;;10.40;3.80;;;44.70;39.60;;;;;;5049228;28;19921;-44
2022/06/30 10:58:15;;;;;;;5.60;4.13;;;43.20;39.20;;;;;;5049112;28;20045;-44
2022/06/30 11:01:00;;;;;;;5.45;3.70;;;41.40;39.40;;;;;;5049016;28;20052;-42
2022/06/30 11:03:35;;;;;;;4.88;3.33;;;40.00;41.90;;;;;;5048716;28;20128;-43
2022/06/30 11:06:12;;;;;;;3.65;3.35;;;38.90;44.40;;;;;;5048672;28;20127;-43
2022/06/30 11:08:48;;;;;;;4.40;3.65;;;38.30;47.50;;;;;;5048365;28;20388;-43
2022/06/30 11:11:20;;;;;;;6.13;3.75;;;37.90;47.60;;;;;;5047117;28;20064;-43
2022/06/30 11:13:50;;;;;;;7.40;3.60;;;37.60;48.00;;;;;;5048434;28;20056;-45
2022/06/30 11:16:17;;;;;;;4.35;3.22;;;37.40;48.30;;;;;;5048770;28;20174;-42
2022/06/30 11:18:44;;;;;;;4.78;3.53;;;37.20;49.30;;;;;;5048536;28;20091;-42
2022/06/30 11:21:10;;;;;;;5.38;4.57;;;37.10;50.90;;;;;;5048551;28;20044;-44
2022/06/30 11:23:46;;;;;;;5.78;4.13;;;36.90;48.80;;;;;;5048823;28;20067;-43
2022/06/30 11:29:01;;;;;;;6.10;4.47;;;36.40;50.80;;;;;;5048394;28;20057;-43
2022/06/30 11:31:37;;;;;;;4.28;3.58;;;35.80;50.40;;;;;;5047753;28;20588;-46
2022/06/30 11:34:13;;;;;;;5.40;4.90;;;35.30;51.00;;;;;;5048315;28;20089;-44
2022/06/30 11:36:40;;;;;;;5.50;4.97;;;34.60;51.90;;;;;;5048441;28;20497;-43
2022/06/30 11:39:14;;;;;;;5.30;4.80;;;34.00;52.50;;;;;;5048221;28;20486;-44
2022/06/30 11:41:55;;;;;;;5.30;4.53;;;33.40;54.80;;;;;;5048591;28;20304;-45
2022/06/30 11:44:34;;;;;;;5.75;4.78;;;;;;;;;;5048584;28;20037;-43
2022/06/30 11:47:04;;;;;;;5.57;4.85;;;;;;;;;;5048254;28;20095;-42
2022/06/30 11:49:45;;;;;;;6.20;4.70;;;32.10;72.20;;;;;;5047914;28;20041;-44
2022/06/30 11:52:34;;;;;;;5.22;4.72;;;31.80;59.70;;;;;;5047823;28;20467;-45
2022/06/30 11:55:05;;;;;;;4.50;4.10;;;31.50;58.50;;;;;;5047988;28;20047;-46
2022/06/30 11:57:39;;;;;;;4.90;4.50;;;31.40;60.10;;;;;;5048182;28;20588;-44
2022/06/30 12:00:11;;;;;;;4.97;4.22;;;31.40;61.50;;;;;;5048055;28;20045;-44
2022/06/30 12:02:38;;;;;;;5.53;4.82;;;31.60;62.00;;;;;;5048086;28;20134;-43
2022/06/30 12:05:09;;;;;;;6.00;5.47;;;31.90;59.00;;;;;;5047905;28;20063;-43
2022/06/30 12:07:35;;;;;;;5.78;4.95;;;32.30;58.60;;;;;;5047795;28;20076;-42
2022/06/30 12:10:03;;;;;;;7.22;5.55;;;32.40;57.20;;;;;;5047305;28;20056;-43
2022/06/30 12:12:30;;;;;;;5.40;4.90;;;32.30;58.00;;;;;;5046907;28;20049;-45
2022/06/30 12:15:01;;;;;;;6.38;4.80;;;32.20;58.60;;;;;;5047568;28;20040;-46
2022/06/30 12:17:31;;;;;;;;;;;32.00;59.10;;;;;;5048893;28;20041;-42
2022/06/30 12:19:57;;;;;;;6.35;4.45;;;31.70;60.00;;;;;;5047852;28;19955;-47
2022/06/30 12:22:24;;;;;;;6.50;5.03;;;31.40;59.60;;;;;;5048390;28;20530;-42
2022/06/30 12:24:51;;;;;;;4.90;4.45;;;31.10;60.20;;;;;;5047825;28;20510;-43
2022/06/30 12:27:27;;;;;;;5.95;5.18;;;31.00;61.10;;;;;;5048171;28;20054;-43
2022/06/30 12:30:01;;;;;;;5.13;4.63;;;31.10;61.00;;;;;;5048204;28;20179;-43
2022/06/30 12:32:28;;;;;;;4.93;4.10;;;31.00;60.10;;;;;;5046686;28;20049;-43
2022/06/30 12:34:59;;;;;;;5.53;4.95;;;31.00;60.60;;;;;;5047900;28;20041;-44
2022/06/30 12:37:38;;;;;;;;;;;31.10;60.90;;;;;;5048416;28;20744;-44
2022/06/30 12:40:07;;;;;;;15.40;5.03;;;31.10;59.80;;;;;;5047086;28;20169;-46
2022/06/30 12:42:43;;;;;;;5.47;4.70;;;31.00;59.70;;;;;;5047988;28;20610;-43
2022/06/30 12:45:35;;;;;;;5.03;4.50;;;31.00;58.90;;;;;;5047374;28;20379;-43
2022/06/30 12:48:06;;;;;;;5.60;4.30;;;30.70;58.50;;;;;;5047317;28;20041;-43
2022/06/30 12:50:33;;;;;;;5.00;4.22;;;30.40;58.80;;;;;;5047866;28;20041;-43
2022/06/30 12:53:24;;;;;;;5.43;4.93;;;30.20;60.60;;;;;;5047598;28;20053;-43
2022/06/30 12:55:59;;;;;;;4.20;3.80;;;30.00;60.00;;;;;;5048008;28;20128;-42
2022/06/30 12:58:25;;;;;;;4.15;3.75;;;29.80;63.60;;;;;;5047969;28;20126;-46
2022/06/30 13:00:54;;;;;;;4.60;4.10;;;29.70;64.70;;;;;;5047925;28;20431;-43
2022/06/30 13:03:20;;;;;;;6.80;3.67;;;29.60;64.50;;;;;;5048672;28;20040;-43
2022/06/30 13:05:46;;;;;;;6.70;3.80;;;29.60;63.90;;;;;;5051197;28;20047;-44
2022/06/30 13:08:11;;;;;;;8.38;4.18;;;29.60;63.60;;;;;;5050580;28;20521;-46
2022/06/30 13:13:21;;;;;;;4.40;3.60;;;29.40;66.20;;;;;;5050989;28;20045;-43
2022/06/30 13:15:47;;;;;;;5.80;3.00;;;29.20;66.70;;;;;;5050861;28;20041;-44
2022/06/30 13:18:13;;;;;;;5.05;2.85;;;29.10;67.80;;;;;;5050644;28;20090;-42
2022/06/30 13:20:39;;;;;;;5.63;3.40;;;29.00;68.50;;;;;;5051027;28;20080;-43
2022/06/30 13:23:05;;;;;;;12.70;4.70;;;28.90;69.40;;;;;;5050789;28;20410;-45